Time;durP1;ratioP1;P1;durP2;ratioP2;P2;SDS_P1;SDS_P2;PMS_P1;PMS_P2;Temp;Humidity;BMP_temperature;BMP_pressure;BME280_temperature;BME280_humidity;BME280_pressure;Samples;Min_cycle;Max_cycle;Signal;HPM_P1;HPM_P2
2021/05/19 00:01:49;;;;;;;1.52;1.13;;;6.90;99.90;;;;;;5057987;28;20089;-80
2021/05/19 00:04:16;;;;;;;2.67;1.35;;;6.90;99.90;;;;;;5092826;28;20083;-80
2021/05/19 00:06:42;;;;;;;1.02;0.90;;;6.90;99.90;;;;;;5074416;28;20032;-79
2021/05/19 00:09:11;;;;;;;1.13;1.02;;;6.90;99.90;;;;;;5091864;28;20097;-79
2021/05/19 00:11:38;;;;;;;2.30;0.90;;;6.80;99.90;;;;;;5074634;28;20039;-79
2021/05/19 00:14:05;;;;;;;3.90;1.00;;;6.80;99.90;;;;;;5073286;28;20099;-79
2021/05/19 00:16:31;;;;;;;1.25;1.10;;;6.80;99.90;;;;;;5067668;28;20070;-79
2021/05/19 00:18:57;;;;;;;2.30;1.13;;;6.80;99.90;;;;;;5052143;28;20032;-79
2021/05/19 00:21:23;;;;;;;1.23;0.90;;;6.80;99.90;;;;;;5059072;28;20581;-79
2021/05/19 00:23:49;;;;;;;4.10;1.23;;;6.80;99.90;;;;;;5057215;28;20032;-80
2021/05/19 00:26:15;;;;;;;1.30;1.20;;;6.80;99.90;;;;;;5058462;28;20044;-80
2021/05/19 00:28:44;;;;;;;2.05;0.88;;;6.80;99.90;;;;;;5091522;28;20028;-80
2021/05/19 00:31:10;;;;;;;1.17;1.02;;;6.80;99.90;;;;;;5087900;28;20475;-80
2021/05/19 00:33:36;;;;;;;1.27;1.17;;;6.80;99.90;;;;;;5064934;28;20036;-80
2021/05/19 00:36:02;;;;;;;1.42;1.20;;;6.80;99.90;;;;;;5054691;28;20084;-80
2021/05/19 00:38:28;;;;;;;1.38;1.13;;;6.70;99.90;;;;;;5055656;28;20115;-79
2021/05/19 00:40:54;;;;;;;1.20;0.98;;;6.60;99.90;;;;;;5076175;28;20063;-79
2021/05/19 00:43:19;;;;;;;1.80;1.40;;;6.60;99.90;;;;;;5060340;28;20135;-79
2021/05/19 00:45:45;;;;;;;1.45;1.30;;;6.60;99.90;;;;;;5059645;28;20032;-79
2021/05/19 00:48:11;;;;;;;1.80;1.38;;;6.60;99.90;;;;;;5094829;28;20084;-79
2021/05/19 00:50:39;;;;;;;2.00;1.38;;;6.60;99.90;;;;;;5042114;28;20053;-79
2021/05/19 00:53:06;;;;;;;1.08;0.98;;;6.70;99.90;;;;;;5040632;28;20032;-80
2021/05/19 00:55:33;;;;;;;1.63;1.30;;;6.60;99.90;;;;;;5074762;28;20028;-79
2021/05/19 00:57:59;;;;;;;1.52;1.10;;;6.70;99.90;;;;;;5058551;28;20028;-79
2021/05/19 01:00:33;;;;;;;1.85;1.10;;;6.70;99.90;;;;;;5065428;28;20100;-79
2021/05/19 01:03:06;;;;;;;1.50;1.02;;;6.70;99.90;;;;;;5073766;28;20024;-79
2021/05/19 01:05:41;;;;;;;1.40;1.30;;;6.70;99.90;;;;;;5093619;28;20484;-79
2021/05/19 01:11:06;;;;;;;1.33;1.20;;;6.70;99.90;;;;;;5092974;28;20032;-79
2021/05/19 01:13:33;;;;;;;1.20;1.10;;;6.70;99.90;;;;;;5055809;28;20169;-79
2021/05/19 01:16:00;;;;;;;2.58;1.42;;;6.60;99.90;;;;;;5038163;28;20055;-79
2021/05/19 01:18:26;;;;;;;3.58;1.85;;;6.50;99.90;;;;;;5055409;28;20028;-79
2021/05/19 01:20:55;;;;;;;3.00;2.03;;;6.40;99.90;;;;;;5055077;28;20032;-79
2021/05/19 01:23:21;;;;;;;2.25;1.80;;;6.30;99.90;;;;;;5043808;28;20114;-79
2021/05/19 01:25:47;;;;;;;1.70;1.60;;;6.20;99.90;;;;;;5074821;28;20041;-79
2021/05/19 01:28:12;;;;;;;4.13;2.22;;;6.20;99.90;;;;;;5055478;28;20059;-79
2021/05/19 01:30:38;;;;;;;2.20;1.65;;;6.10;99.90;;;;;;5049155;28;20074;-79
2021/05/19 01:33:04;;;;;;;2.60;2.08;;;6.10;99.90;;;;;;5058566;28;20123;-79
2021/05/19 01:35:30;;;;;;;2.88;1.67;;;6.10;99.90;;;;;;5064567;28;20024;-79
2021/05/19 01:37:56;;;;;;;2.83;1.67;;;6.00;99.90;;;;;;5079257;28;20024;-79
2021/05/19 01:40:23;;;;;;;1.98;1.65;;;6.00;99.90;;;;;;5041008;28;20403;-79
2021/05/19 01:42:51;;;;;;;3.03;1.60;;;6.00;99.90;;;;;;5045255;28;20046;-79
2021/05/19 01:45:49;;;;;;;2.05;1.83;;;6.00;99.90;;;;;;5042039;28;20036;-79
2021/05/19 01:48:17;;;;;;;3.00;1.63;;;6.10;99.90;;;;;;5038042;28;20033;-79
2021/05/19 01:50:44;;;;;;;2.15;1.70;;;6.00;99.90;;;;;;5054634;28;20024;-79
2021/05/19 01:53:12;;;;;;;2.42;1.85;;;6.00;99.90;;;;;;5069601;28;20104;-79
2021/05/19 01:55:38;;;;;;;1.98;1.80;;;6.00;99.90;;;;;;5057984;28;20060;-79
2021/05/19 01:58:05;;;;;;;1.58;1.33;;;6.00;99.90;;;;;;5058397;28;20023;-79
2021/05/19 02:00:32;;;;;;;3.20;2.08;;;6.00;99.90;;;;;;5057983;28;20023;-79
2021/05/19 02:03:04;;;;;;;3.13;1.70;;;5.90;99.90;;;;;;5068789;28;20031;-79
2021/05/19 02:05:34;;;;;;;2.97;2.00;;;5.90;99.90;;;;;;5059430;28;20024;-79
2021/05/19 02:08:05;;;;;;;3.22;1.80;;;5.90;99.90;;;;;;5048744;28;20407;-79
2021/05/19 02:10:37;;;;;;;2.67;2.10;;;6.00;99.90;;;;;;5038061;28;20054;-79
2021/05/19 02:13:05;;;;;;;3.42;2.13;;;6.00;99.90;;;;;;5043743;28;20035;-79
2021/05/19 02:15:34;;;;;;;2.10;1.67;;;6.10;99.90;;;;;;5062582;28;20020;-79
2021/05/19 02:18:01;;;;;;;2.28;1.95;;;6.20;99.90;;;;;;5061481;28;20430;-79
2021/05/19 02:20:28;;;;;;;2.60;2.10;;;6.20;99.90;;;;;;5061365;28;20032;-79
2021/05/19 02:22:55;;;;;;;2.10;1.77;;;6.30;99.90;;;;;;5049803;28;20113;-79
2021/05/19 02:25:23;;;;;;;2.00;1.80;;;6.30;99.90;;;;;;5087030;28;20050;-79
2021/05/19 02:27:50;;;;;;;2.58;2.00;;;6.40;99.90;;;;;;5078341;28;20036;-79
2021/05/19 02:30:19;;;;;;;2.70;1.80;;;6.50;99.90;;;;;;5077484;28;20020;-79
2021/05/19 02:32:46;;;;;;;1.92;1.70;;;6.50;99.90;;;;;;5045661;28;20029;-79
2021/05/19 02:35:16;;;;;;;3.65;2.15;;;6.50;99.90;;;;;;5057887;28;20072;-79
2021/05/19 02:37:46;;;;;;;3.55;2.75;;;6.70;99.90;;;;;;5057647;28;20099;-79
2021/05/19 02:40:15;;;;;;;4.65;2.33;;;6.80;99.90;;;;;;5071986;28;20070;-79
2021/05/19 02:42:42;;;;;;;3.15;2.15;;;6.90;99.90;;;;;;5074458;28;20024;-79
2021/05/19 02:45:09;;;;;;;3.03;2.03;;;6.80;99.90;;;;;;5057199;28;20047;-79
2021/05/19 02:47:35;;;;;;;2.15;1.58;;;6.80;99.90;;;;;;5065140;28;20157;-79
2021/05/19 02:50:02;;;;;;;2.17;1.95;;;6.90;99.90;;;;;;5057375;28;20484;-79
2021/05/19 02:52:28;;;;;;;2.60;2.08;;;6.90;99.90;;;;;;5078955;28;20024;-79
2021/05/19 02:54:53;;;;;;;3.13;1.70;;;6.90;99.90;;;;;;5063472;28;20137;-79
2021/05/19 02:57:19;;;;;;;3.85;2.00;;;6.90;99.90;;;;;;5068943;28;20025;-79
2021/05/19 02:59:45;;;;;;;2.33;1.88;;;6.90;99.90;;;;;;5077078;28;20479;-79
2021/05/19 03:02:11;;;;;;;3.38;2.28;;;7.00;99.90;;;;;;5076118;28;20043;-79
2021/05/19 03:04:37;;;;;;;2.28;2.05;;;7.00;99.90;;;;;;5089053;28;20472;-79
2021/05/19 03:07:04;;;;;;;4.47;1.83;;;7.00;99.90;;;;;;5073902;28;20036;-79
2021/05/19 03:09:29;;;;;;;2.60;1.75;;;7.10;99.90;;;;;;5030281;28;20400;-79
2021/05/19 03:11:55;;;;;;;1.80;1.60;;;7.10;99.90;;;;;;5053411;28;20032;-79
2021/05/19 03:14:21;;;;;;;1.45;1.13;;;7.10;99.90;;;;;;5060023;28;20024;-79
2021/05/19 03:16:47;;;;;;;2.30;1.60;;;7.10;99.90;;;;;;5058036;28;20109;-79
2021/05/19 03:19:13;;;;;;;3.15;1.55;;;7.20;99.90;;;;;;5061029;28;20033;-79
2021/05/19 03:21:38;;;;;;;1.67;1.25;;;7.20;99.90;;;;;;5068843;28;20089;-79
2021/05/19 03:24:05;;;;;;;2.42;1.90;;;7.20;99.90;;;;;;5072780;28;20071;-79
2021/05/19 03:26:31;;;;;;;2.00;1.48;;;7.20;99.90;;;;;;5059127;28;20060;-79
2021/05/19 03:28:56;;;;;;;3.28;1.92;;;7.20;99.90;;;;;;5076429;28;20036;-79
2021/05/19 03:31:22;;;;;;;3.83;2.03;;;7.20;99.90;;;;;;5059146;28;20619;-78
2021/05/19 03:33:48;;;;;;;3.70;2.28;;;7.20;99.90;;;;;;5039254;28;20063;-79
2021/05/19 03:36:14;;;;;;;2.38;2.17;;;7.20;99.90;;;;;;5068437;28;20568;-79
2021/05/19 03:38:39;;;;;;;1.92;1.55;;;7.20;99.90;;;;;;5056199;28;20120;-79
2021/05/19 03:41:06;;;;;;;2.08;1.65;;;7.20;99.90;;;;;;5068173;28;20106;-79
2021/05/19 03:43:34;;;;;;;4.30;2.22;;;7.20;99.90;;;;;;5068176;28;20060;-79
2021/05/19 03:46:00;;;;;;;1.90;1.70;;;7.20;99.90;;;;;;5073164;28;20107;-79
2021/05/19 03:48:26;;;;;;;2.83;2.17;;;7.20;99.90;;;;;;5055607;28;20116;-79
2021/05/19 03:50:51;;;;;;;5.22;2.03;;;7.20;99.90;;;;;;5044991;28;20029;-79
2021/05/19 03:53:17;;;;;;;2.10;1.90;;;7.20;99.90;;;;;;5059356;28;20032;-79
2021/05/19 03:55:46;;;;;;;2.72;2.38;;;7.20;99.90;;;;;;5075073;28;20106;-79
2021/05/19 03:58:12;;;;;;;3.40;2.42;;;7.20;99.90;;;;;;5053855;28;20028;-79
2021/05/19 04:00:39;;;;;;;3.58;2.33;;;7.20;99.90;;;;;;5054344;28;20089;-79
2021/05/19 04:03:05;;;;;;;3.67;2.25;;;7.10;99.90;;;;;;5056431;28;20028;-79
2021/05/19 04:05:35;;;;;;;3.67;2.60;;;7.10;99.90;;;;;;5070014;28;20459;-79
2021/05/19 04:08:01;;;;;;;2.78;2.25;;;7.10;99.90;;;;;;5057399;28;20036;-78
2021/05/19 04:10:27;;;;;;;4.65;2.63;;;7.10;99.90;;;;;;5073954;28;20123;-79
2021/05/19 04:12:53;;;;;;;4.57;3.15;;;7.20;99.90;;;;;;5073728;28;20028;-79
2021/05/19 04:15:21;;;;;;;3.67;2.75;;;7.20;99.90;;;;;;5073276;28;20450;-79
2021/05/19 04:17:47;;;;;;;3.20;2.50;;;7.20;99.90;;;;;;5057201;28;20127;-79
2021/05/19 04:20:14;;;;;;;3.75;2.70;;;7.20;99.90;;;;;;5057113;28;20113;-79
2021/05/19 04:22:40;;;;;;;3.15;2.63;;;7.20;99.90;;;;;;5057068;22;20045;-81
2021/05/19 04:25:07;;;;;;;5.03;2.92;;;7.20;99.90;;;;;;4996559;28;20025;-79
2021/05/19 04:27:33;;;;;;;4.18;2.88;;;7.30;99.90;;;;;;5032447;28;20049;-80
2021/05/19 04:29:59;;;;;;;5.32;2.90;;;7.30;99.90;;;;;;5031606;28;20013;-80
2021/05/19 04:32:25;;;;;;;5.38;3.10;;;7.30;99.90;;;;;;5015181;28;20064;-78
2021/05/19 04:34:51;;;;;;;5.38;3.33;;;7.40;99.90;;;;;;5016136;28;20065;-79
2021/05/19 04:37:17;;;;;;;4.18;3.10;;;7.40;99.90;;;;;;5033405;28;20171;-79
2021/05/19 04:39:42;;;;;;;3.22;2.78;;;7.40;99.90;;;;;;5029584;28;20033;-78
2021/05/19 04:42:09;;;;;;;3.63;2.70;;;7.40;99.90;;;;;;5015828;28;20044;-81
2021/05/19 04:44:38;;;;;;;3.67;2.97;;;7.40;99.90;;;;;;5032728;28;20030;-78
2021/05/19 04:47:04;;;;;;;5.43;3.60;;;7.50;99.90;;;;;;5015348;28;20386;-80
2021/05/19 04:49:29;;;;;;;4.75;3.15;;;7.50;99.90;;;;;;5005241;28;20034;-80
2021/05/19 04:51:55;;;;;;;3.80;3.30;;;7.60;99.90;;;;;;5013675;28;20119;-79
2021/05/19 04:54:21;;;;;;;5.22;3.60;;;7.60;99.90;;;;;;5026550;28;20034;-81
2021/05/19 04:56:47;;;;;;;4.72;3.50;;;7.70;99.90;;;;;;5003596;28;20085;-80
2021/05/19 04:59:12;;;;;;;4.80;3.60;;;7.80;99.90;;;;;;5012779;28;20037;-79
2021/05/19 05:01:38;;;;;;;4.00;3.03;;;7.80;99.90;;;;;;5013839;28;20452;-80
2021/05/19 05:04:04;;;;;;;4.90;3.63;;;7.90;99.90;;;;;;5015245;28;20076;-81
2021/05/19 05:06:29;;;;;;;5.95;3.40;;;8.00;99.90;;;;;;5014382;28;20096;-78
2021/05/19 05:08:55;;;;;;;5.32;3.47;;;8.00;99.90;;;;;;5015603;28;20086;-82
2021/05/19 05:11:21;;;;;;;4.30;3.55;;;8.10;99.90;;;;;;4998763;28;20037;-80
2021/05/19 05:13:47;;;;;;;5.13;3.78;;;8.20;99.90;;;;;;4997459;28;20045;-79
2021/05/19 05:16:14;;;;;;;5.00;3.55;;;8.30;99.90;;;;;;5010889;28;20485;-79
2021/05/19 05:18:41;;;;;;;4.57;3.40;;;8.40;99.90;;;;;;5015453;28;20757;-79
2021/05/19 05:21:08;;;;;;;4.55;3.67;;;8.50;99.90;;;;;;5031631;28;20055;-80
2021/05/19 05:23:34;;;;;;;4.32;3.30;;;8.60;99.90;;;;;;5030350;28;20044;-79
2021/05/19 05:26:01;;;;;;;3.83;3.20;;;8.70;99.90;;;;;;5031138;28;20497;-79
2021/05/19 05:28:27;;;;;;;4.00;2.95;;;8.80;99.90;;;;;;5016078;28;20029;-81
2021/05/19 05:30:55;;;;;;;5.72;3.28;;;8.90;99.90;;;;;;5025784;28;20033;-80
2021/05/19 05:33:21;;;;;;;4.00;3.05;;;9.00;99.90;;;;;;5031114;28;20109;-78
2021/05/19 05:35:47;;;;;;;5.18;3.80;;;9.20;99.90;;;;;;5015292;28;20033;-81
2021/05/19 05:38:13;;;;;;;6.28;3.15;;;9.40;99.90;;;;;;5033944;28;20056;-80
2021/05/19 05:40:39;;;;;;;4.43;2.97;;;9.50;99.90;;;;;;5032487;28;20068;-80
2021/05/19 05:43:05;;;;;;;4.10;3.28;;;9.80;99.90;;;;;;5012604;28;20066;-80
2021/05/19 05:45:31;;;;;;;4.75;3.05;;;10.20;99.90;;;;;;5014993;28;20068;-79
2021/05/19 05:47:57;;;;;;;4.85;3.35;;;10.40;99.90;;;;;;5011255;28;20072;-83
2021/05/19 05:50:23;;;;;;;4.22;3.08;;;10.60;99.90;;;;;;5014020;28;20022;-80
2021/05/19 05:52:50;;;;;;;5.38;3.38;;;10.70;99.90;;;;;;5031591;28;20029;-81
2021/05/19 05:55:15;;;;;;;4.00;3.15;;;10.70;99.90;;;;;;5033055;28;20032;-80
2021/05/19 05:57:41;;;;;;;6.13;3.58;;;10.80;99.90;;;;;;4996954;28;20033;-81
2021/05/19 06:00:12;;;;;;;4.45;3.25;;;10.80;99.90;;;;;;5045169;28;20026;-80
2021/05/19 06:02:42;;;;;;;3.45;3.15;;;10.80;99.90;;;;;;5031642;28;20409;-78
2021/05/19 06:05:09;;;;;;;7.88;4.10;;;10.80;99.90;;;;;;5015326;28;20059;-80
2021/05/19 06:07:34;;;;;;;4.70;3.30;;;10.80;99.90;;;;;;5032124;28;20026;-81
2021/05/19 06:10:00;;;;;;;7.30;3.53;;;10.90;99.90;;;;;;4999952;28;20506;-80
2021/05/19 06:12:26;;;;;;;6.72;3.25;;;11.00;99.90;;;;;;4995589;28;20033;-79
2021/05/19 06:14:51;;;;;;;4.82;3.65;;;11.00;99.90;;;;;;5000663;28;20049;-80
2021/05/19 06:17:17;;;;;;;5.72;3.83;;;11.10;99.90;;;;;;4999624;28;20083;-82
2021/05/19 06:19:43;;;;;;;4.80;3.60;;;11.20;99.90;;;;;;5017773;28;20400;-80
2021/05/19 06:22:09;;;;;;;15.70;3.78;;;11.30;99.90;;;;;;5033651;28;20030;-80
2021/05/19 06:24:35;;;;;;;5.50;3.55;;;11.40;99.90;;;;;;5014706;28;20025;-80
2021/05/19 06:27:02;;;;;;;6.35;3.75;;;11.60;99.90;;;;;;5009190;28;20373;-82
2021/05/19 06:29:28;;;;;;;4.57;3.42;;;11.80;99.90;;;;;;5004889;28;20033;-81
2021/05/19 06:31:54;;;;;;;7.55;4.07;;;12.10;99.90;;;;;;5031020;28;20184;-83
2021/05/19 06:34:20;;;;;;;4.43;3.70;;;12.50;99.90;;;;;;4996419;28;20168;-80
2021/05/19 06:36:46;;;;;;;8.38;4.13;;;13.00;99.90;;;;;;5030946;28;20040;-82
2021/05/19 06:39:17;;;;;;;4.95;3.20;;;13.30;99.90;;;;;;5031120;28;20108;-81
2021/05/19 06:41:45;;;;;;;3.85;3.38;;;13.30;99.90;;;;;;5013768;28;20037;-79
2021/05/19 06:44:13;;;;;;;4.07;3.30;;;13.40;99.90;;;;;;5019310;28;20055;-79
2021/05/19 06:46:39;;;;;;;7.05;3.75;;;13.30;99.90;;;;;;5023595;28;20029;-80
2021/05/19 06:49:05;;;;;;;5.97;3.90;;;13.20;99.90;;;;;;5018666;28;20029;-79
2021/05/19 06:51:31;;;;;;;5.03;4.00;;;13.20;99.90;;;;;;5031806;28;20040;-79
2021/05/19 06:53:57;;;;;;;5.60;4.20;;;13.10;99.90;;;;;;5029873;28;20053;-79
2021/05/19 06:56:23;;;;;;;7.15;4.43;;;13.10;99.90;;;;;;5024153;28;20025;-80
2021/05/19 06:58:49;;;;;;;6.68;4.90;;;13.00;99.90;;;;;;5034974;28;20062;-79
2021/05/19 07:01:15;;;;;;;6.47;4.15;;;13.00;99.90;;;;;;5031487;28;20090;-79
2021/05/19 07:03:41;;;;;;;8.52;4.68;;;13.10;99.90;;;;;;5021369;28;20521;-79
2021/05/19 07:06:06;;;;;;;6.30;4.53;;;13.20;99.90;;;;;;5033235;28;20026;-80
2021/05/19 07:08:32;;;;;;;5.18;3.67;;;13.60;99.90;;;;;;5038668;28;20033;-80
2021/05/19 07:10:58;;;;;;;6.93;4.35;;;14.00;99.90;;;;;;5035216;28;20374;-82
2021/05/19 07:13:27;;;;;;;5.97;4.10;;;14.30;99.90;;;;;;5035592;28;20028;-81
2021/05/19 07:15:53;;;;;;;5.05;3.60;;;14.70;99.90;;;;;;5035427;28;20113;-80
2021/05/19 07:18:20;;;;;;;5.53;3.78;;;15.30;99.90;;;;;;5034045;28;20025;-80
2021/05/19 07:20:46;;;;;;;4.35;3.67;;;16.20;99.90;;;;;;5024832;28;20029;-81
2021/05/19 07:23:12;;;;;;;3.50;2.95;;;16.70;99.90;;;;;;5026539;28;20045;-80
2021/05/19 07:25:38;;;;;;;7.85;3.70;;;16.80;99.90;;;;;;5031371;28;20067;-80
2021/05/19 07:28:05;;;;;;;6.47;3.40;;;16.80;99.90;;;;;;5033452;28;20029;-81
2021/05/19 07:30:31;;;;;;;4.80;3.05;;;16.40;99.90;;;;;;5036118;28;20061;-80
2021/05/19 07:32:57;;;;;;;4.65;3.38;;;15.90;99.90;;;;;;5025762;28;20049;-82
2021/05/19 07:35:23;;;;;;;4.38;3.58;;;15.50;99.90;;;;;;5029943;28;20025;-81
2021/05/19 07:37:49;;;;;;;4.82;3.45;;;15.30;99.90;;;;;;5030894;28;20555;-79
2021/05/19 07:40:15;;;;;;;7.65;3.35;;;15.10;99.90;;;;;;5031333;28;20025;-81
2021/05/19 07:42:41;;;;;;;5.32;2.90;;;15.30;99.90;;;;;;5030922;28;20051;-80
2021/05/19 07:45:08;;;;;;;4.63;2.97;;;15.40;99.90;;;;;;5001735;28;20030;-81
2021/05/19 07:47:34;;;;;;;4.80;3.05;;;15.50;99.90;;;;;;5031820;28;20029;-81
2021/05/19 07:50:00;;;;;;;7.88;3.35;;;15.60;99.90;;;;;;5038504;28;20026;-79
2021/05/19 07:52:25;;;;;;;5.05;3.50;;;15.60;99.90;;;;;;5029097;28;20585;-80
2021/05/19 07:54:51;;;;;;;4.05;3.30;;;15.60;99.90;;;;;;5028255;28;20863;-82
2021/05/19 08:00:20;;;;;;;5.10;2.83;;;15.30;99.90;;;;;;5006505;28;20105;-80
2021/05/19 08:02:46;;;;;;;3.75;3.38;;;14.90;99.90;;;;;;5024871;28;20036;-79
2021/05/19 08:05:12;;;;;;;4.10;3.13;;;14.60;99.90;;;;;;5033776;28;20033;-79
2021/05/19 08:07:37;;;;;;;4.53;3.40;;;14.60;99.90;;;;;;5037421;28;20052;-79
2021/05/19 08:10:04;;;;;;;3.55;2.58;;;14.60;99.90;;;;;;5033707;28;20484;-79
2021/05/19 08:12:29;;;;;;;4.35;2.60;;;14.70;99.90;;;;;;5035793;28;20099;-79
2021/05/19 08:14:55;;;;;;;3.35;2.67;;;14.70;99.90;;;;;;5033433;28;20041;-80
2021/05/19 08:17:21;;;;;;;2.42;2.20;;;14.60;99.90;;;;;;5012347;28;20041;-79
2021/05/19 08:19:46;;;;;;;4.05;2.50;;;14.50;99.90;;;;;;5015177;28;20029;-80
2021/05/19 08:22:13;;;;;;;4.35;2.38;;;14.20;99.90;;;;;;5028509;28;20035;-80
2021/05/19 08:24:40;;;;;;;3.30;2.72;;;14.00;99.90;;;;;;5013477;28;20125;-80
2021/05/19 08:27:06;;;;;;;3.05;2.53;;;13.80;99.90;;;;;;5006952;28;20022;-80
2021/05/19 08:29:32;;;;;;;4.53;3.03;;;13.80;99.90;;;;;;5032043;28;20374;-80
2021/05/19 08:31:59;;;;;;;5.07;2.67;;;14.00;99.90;;;;;;5011021;28;20049;-78
2021/05/19 08:34:25;;;;;;;3.15;2.55;;;14.10;99.90;;;;;;5026941;28;20025;-80
2021/05/19 08:36:51;;;;;;;6.15;2.72;;;14.20;99.90;;;;;;5027814;28;20052;-80
2021/05/19 08:39:20;;;;;;;3.55;1.88;;;14.50;99.90;;;;;;5033844;28;20033;-81
2021/05/19 08:41:48;;;;;;;2.60;1.98;;;14.60;99.90;;;;;;5012858;28;20117;-80
2021/05/19 08:44:14;;;;;;;2.33;1.75;;;14.70;99.90;;;;;;5010921;28;20116;-81
2021/05/19 08:46:45;;;;;;;2.28;1.80;;;14.70;99.90;;;;;;5012381;28;20025;-81
2021/05/19 08:49:12;;;;;;;2.05;1.50;;;14.70;99.90;;;;;;5030129;28;20018;-81
2021/05/19 08:51:39;;;;;;;2.97;2.13;;;14.70;99.90;;;;;;5027984;28;20029;-81
2021/05/19 08:54:07;;;;;;;1.80;1.70;;;14.80;99.90;;;;;;5031847;28;20642;-81
2021/05/19 08:56:40;;;;;;;2.80;1.50;;;15.00;99.90;;;;;;5029971;28;20053;-81
2021/05/19 08:59:06;;;;;;;3.42;1.67;;;15.10;99.90;;;;;;5034973;28;20068;-81
2021/05/19 09:01:52;;;;;;;2.58;1.65;;;15.20;99.90;;;;;;5035100;28;20025;-81
2021/05/19 09:04:23;;;;;;;3.17;1.42;;;15.10;99.90;;;;;;5026724;28;20088;-81
2021/05/19 09:07:01;;;;;;;2.38;1.20;;;15.20;99.90;;;;;;5012654;28;20060;-80
2021/05/19 09:09:35;;;;;;;2.58;1.50;;;15.60;99.90;;;;;;5030508;28;20062;-79
2021/05/19 09:12:08;;;;;;;2.40;2.10;;;16.00;99.90;;;;;;5025121;28;20057;-80
2021/05/19 09:14:39;;;;;;;2.63;1.48;;;16.30;99.90;;;;;;5033542;28;20033;-82
2021/05/19 09:17:28;;;;;;;2.00;1.77;;;16.50;99.90;;;;;;5036868;28;20045;-82
2021/05/19 09:20:15;;;;;;;1.90;0.93;;;16.40;99.90;;;;;;5034282;28;20037;-81
2021/05/19 09:22:46;;;;;;;5.50;1.45;;;16.40;99.90;;;;;;5060471;28;20141;-82
2021/05/19 09:25:25;;;;;;;2.15;1.33;;;16.20;99.90;;;;;;5067659;28;20089;-81
2021/05/19 09:27:56;;;;;;;0.90;0.90;;;16.10;99.90;;;;;;5040084;28;20029;-82
2021/05/19 09:30:44;;;;;;;1.55;1.30;;;15.90;99.90;;;;;;5035536;28;20041;-82
2021/05/19 09:33:23;;;;;;;1.10;0.85;;;15.60;99.90;;;;;;5034459;28;20028;-81
2021/05/19 09:36:14;;;;;;;0.95;0.85;;;15.50;99.90;;;;;;5027772;28;20028;-82
2021/05/19 09:38:40;;;;;;;1.38;1.20;;;15.50;99.90;;;;;;5034165;28;20025;-82
2021/05/19 09:41:16;;;;;;;2.65;1.00;;;15.40;99.90;;;;;;5032460;28;20018;-82
2021/05/19 09:43:42;;;;;;;0.80;0.80;;;15.40;99.90;;;;;;5032122;28;20046;-81
2021/05/19 09:46:27;;;;;;;2.10;1.25;;;15.40;99.90;;;;;;5029712;28;20052;-81
2021/05/19 09:49:21;;;;;;;1.27;0.80;;;15.40;99.90;;;;;;5033571;28;20029;-82
2021/05/19 09:51:52;;;;;;;0.80;0.80;;;15.50;99.90;;;;;;5037658;28;20099;-82
2021/05/19 09:54:33;;;;;;;1.25;0.93;;;15.50;99.90;;;;;;5035621;28;20374;-81
2021/05/19 09:57:04;;;;;;;0.85;0.63;;;15.50;99.90;;;;;;5014944;28;20040;-82
2021/05/19 09:59:30;;;;;;;1.08;0.98;;;15.50;99.90;;;;;;5034274;28;20044;-82
2021/05/19 10:01:59;;;;;;;1.35;0.90;;;15.70;99.90;;;;;;5031727;28;20093;-81
2021/05/19 10:04:28;;;;;;;3.22;1.30;;;15.80;99.90;;;;;;5031564;28;20076;-82
2021/05/19 10:06:56;;;;;;;2.58;1.20;;;15.90;99.90;;;;;;5033042;28;20056;-82
2021/05/19 10:09:24;;;;;;;1.25;1.13;;;16.00;99.90;;;;;;5032852;28;20065;-82
2021/05/19 10:11:50;;;;;;;0.90;0.73;;;16.10;99.90;;;;;;5020094;28;20026;-81
2021/05/19 10:14:19;;;;;;;1.77;1.02;;;16.10;99.90;;;;;;5035818;28;20428;-81
2021/05/19 10:16:49;;;;;;;1.63;1.10;;;16.00;99.90;;;;;;5037368;28;20044;-80
2021/05/19 10:19:19;;;;;;;2.42;1.00;;;15.90;99.90;;;;;;5032181;28;20044;-81
2021/05/19 10:21:46;;;;;;;2.78;1.13;;;15.90;99.90;;;;;;5033374;28;20041;-80
2021/05/19 10:24:13;;;;;;;5.15;1.20;;;16.00;99.90;;;;;;5027834;28;20036;-81
2021/05/19 10:27:03;;;;;;;1.52;1.10;;;16.20;99.90;;;;;;5013574;28;20040;-81
2021/05/19 10:29:53;;;;;;;1.45;1.30;;;16.30;99.90;;;;;;5031642;28;20034;-81
2021/05/19 10:32:21;;;;;;;1.17;1.02;;;16.50;99.90;;;;;;5032728;28;20066;-81
2021/05/19 10:34:52;;;;;;;1.88;1.10;;;16.60;99.90;;;;;;5039438;28;20029;-81
2021/05/19 10:37:27;;;;;;;1.40;1.30;;;16.70;99.90;;;;;;5019757;28;20030;-80
2021/05/19 10:40:14;;;;;;;1.80;1.10;;;16.80;99.90;;;;;;5039131;28;20064;-81
2021/05/19 10:42:51;;;;;;;1.70;1.10;;;16.80;99.60;;;;;;5039165;28;20295;-80
2021/05/19 10:45:17;;;;;;;3.53;1.10;;;16.80;99.90;;;;;;5039150;28;20079;-81
2021/05/19 10:47:47;;;;;;;1.20;1.00;;;16.80;99.90;;;;;;5040775;28;20017;-81
2021/05/19 10:50:34;;;;;;;1.67;1.00;;;16.90;99.90;;;;;;5036486;28;20101;-81
2021/05/19 10:58:54;;;;;;;1.40;0.80;;;16.90;99.90;;;;;;5037069;28;20033;-81
2021/05/19 11:01:42;;;;;;;0.98;0.70;;;17.10;99.90;;;;;;5019468;28;20076;-81
2021/05/19 11:04:17;;;;;;;0.52;0.52;;;17.10;99.70;;;;;;5037925;28;20040;-81
2021/05/19 11:07:01;;;;;;;0.50;0.50;;;17.30;99.90;;;;;;5037691;28;20038;-80
2021/05/19 11:09:28;;;;;;;0.80;0.80;;;17.40;99.90;;;;;;5045513;28;20029;-80
2021/05/19 11:12:35;;;;;;;0.75;0.73;;;17.50;94.70;;;;;;5037680;28;20033;-80
2021/05/19 11:15:36;;;;;;;0.88;0.80;;;17.40;93.10;;;;;;5039353;28;20033;-81
2021/05/19 11:21:05;;;;;;;1.75;0.60;;;17.00;98.20;;;;;;5034346;28;20064;-80
2021/05/19 11:23:32;;;;;;;1.58;0.73;;;16.90;93.90;;;;;;5017941;28;20052;-78
2021/05/19 11:26:11;;;;;;;1.17;0.73;;;17.00;99.50;;;;;;5016370;28;20096;-80
2021/05/19 11:28:39;;;;;;;1.02;0.80;;;17.10;99.20;;;;;;5037118;28;20017;-80
2021/05/19 11:31:16;;;;;;;0.70;0.70;;;17.20;99.60;;;;;;5037872;28;20025;-79
2021/05/19 11:34:03;;;;;;;1.40;1.33;;;17.50;99.00;;;;;;5038654;28;20037;-81
2021/05/19 11:36:42;;;;;;;1.00;0.80;;;17.70;93.50;;;;;;5038764;28;20042;-80
2021/05/19 11:39:50;;;;;;;1.08;0.70;;;17.80;82.30;;;;;;5038953;28;20048;-81
2021/05/19 11:42:25;;;;;;;1.48;0.70;;;18.10;95.30;;;;;;4943704;28;20031;-79
2021/05/19 11:45:03;;;;;;;1.77;0.82;;;18.30;89.10;;;;;;5025535;28;20112;-81
2021/05/19 11:47:29;;;;;;;1.05;0.75;;;18.60;88.00;;;;;;5038277;28;20481;-80
2021/05/19 11:50:15;;;;;;;0.60;0.60;;;18.80;86.00;;;;;;5041793;28;20101;-80
2021/05/19 11:52:49;;;;;;;0.63;0.63;;;18.80;91.50;;;;;;5036229;28;20093;-81
2021/05/19 11:55:37;;;;;;;0.60;0.60;;;18.90;92.80;;;;;;5037480;28;20401;-80
2021/05/19 11:58:19;;;;;;;0.60;0.60;;;19.00;87.30;;;;;;5039082;28;20037;-81
2021/05/19 12:00:48;;;;;;;0.60;0.60;;;19.10;88.00;;;;;;5037298;28;20059;-81
2021/05/19 12:03:19;;;;;;;0.40;0.40;;;19.20;76.10;;;;;;5033033;28;20052;-81
2021/05/19 12:05:52;;;;;;;0.60;0.60;;;19.30;85.30;;;;;;5021363;28;20033;-80
2021/05/19 12:08:34;;;;;;;0.40;0.40;;;19.40;80.40;;;;;;5027886;28;20025;-79
2021/05/19 12:11:19;;;;;;;2.28;0.70;;;19.70;84.80;;;;;;5035990;28;20040;-79
2021/05/19 12:13:54;;;;;;;0.65;0.65;;;20.00;78.90;;;;;;5038728;28;20328;-80
2021/05/19 12:16:31;;;;;;;0.57;0.57;;;20.20;72.40;;;;;;5033249;28;20555;-80
2021/05/19 12:19:01;;;;;;;0.93;0.73;;;20.00;66.20;;;;;;5038695;28;20554;-80
2021/05/19 12:21:27;;;;;;;0.47;0.47;;;19.80;69.80;;;;;;5046428;28;20067;-78
2021/05/19 12:23:54;;;;;;;1.85;0.50;;;19.50;74.20;;;;;;5032524;28;20034;-81
2021/05/19 12:26:20;;;;;;;1.67;1.10;;;19.40;69.30;;;;;;5031491;28;20017;-81
2021/05/19 12:28:46;;;;;;;1.40;0.90;;;19.10;77.30;;;;;;5037893;28;20025;-80
2021/05/19 12:31:34;;;;;;;1.15;0.95;;;19.00;80.90;;;;;;5051743;28;20077;-79
2021/05/19 12:34:12;;;;;;;1.13;1.02;;;18.90;84.60;;;;;;5033426;28;20047;-80
2021/05/19 12:36:40;;;;;;;0.82;0.60;;;18.90;80.90;;;;;;5022912;28;20034;-80
2021/05/19 12:39:08;;;;;;;0.70;0.70;;;18.80;79.80;;;;;;5069304;28;20104;-80
2021/05/19 12:42:10;;;;;;;0.50;0.50;;;18.70;78.60;;;;;;5039624;28;20753;-80
2021/05/19 12:44:36;;;;;;;0.60;0.60;;;18.40;79.60;;;;;;5032595;28;20105;-78
2021/05/19 12:47:06;;;;;;;1.48;0.57;;;18.30;83.30;;;;;;5030783;28;20053;-80
2021/05/19 12:49:33;;;;;;;0.50;0.40;;;18.30;82.70;;;;;;5030643;28;20076;-79
2021/05/19 12:52:04;;;;;;;0.70;0.47;;;18.40;78.80;;;;;;5032521;28;20017;-80
2021/05/19 12:54:36;;;;;;;0.35;0.35;;;18.50;81.20;;;;;;5012629;28;20040;-81
2021/05/19 12:57:12;;;;;;;0.47;0.35;;;18.60;82.60;;;;;;5027955;28;20053;-79
2021/05/19 12:59:57;;;;;;;0.60;0.50;;;18.90;81.50;;;;;;5029025;28;20535;-80
2021/05/19 13:02:30;;;;;;;0.32;0.30;;;19.40;83.30;;;;;;5032432;28;20026;-79
2021/05/19 13:04:57;;;;;;;0.90;0.50;;;19.90;76.00;;;;;;5031291;28;20033;-80
2021/05/19 13:07:25;;;;;;;0.70;0.47;;;20.50;74.40;;;;;;5027634;28;20046;-80
2021/05/19 13:10:19;;;;;;;0.40;0.40;;;20.90;69.70;;;;;;5033260;28;20022;-80
2021/05/19 13:13:07;;;;;;;0.50;0.50;;;21.20;72.30;;;;;;5029950;28;20025;-80
2021/05/19 13:15:37;;;;;;;1.00;0.52;;;21.40;62.40;;;;;;5036164;28;20022;-80
2021/05/19 13:18:11;;;;;;;0.88;0.50;;;21.20;62.40;;;;;;5033798;28;20041;-80